Time;durP1;ratioP1;P1;durP2;ratioP2;P2;SDS_P1;SDS_P2;PMS_P1;PMS_P2;Temp;Humidity;BMP_temperature;BMP_pressure;BME280_temperature;BME280_humidity;BME280_pressure;Samples;Min_cycle;Max_cycle;Signal;HPM_P1;HPM_P2
2021/09/10 00:01:12;;;;;;;9.80;6.93;;;;;;;;;;5028733;28;20058;-88
2021/09/10 00:03:38;;;;;;;8.15;6.55;;;;;;;;;;5022919;28;20061;-87
2021/09/10 00:06:04;;;;;;;8.75;6.38;;;;;;;;;;5037898;28;20057;-87
2021/09/10 00:08:31;;;;;;;10.90;6.72;;;;;;;;;;5026950;28;20034;-87
2021/09/10 00:10:57;;;;;;;8.45;6.55;;;;;;;;;;5023883;28;20099;-86
2021/09/10 00:13:24;;;;;;;8.85;6.43;;;;;;;;;;5023953;28;20114;-87
2021/09/10 00:15:50;;;;;;;7.97;5.97;;;;;;;;;;5014844;28;21237;-89
2021/09/10 00:18:16;;;;;;;8.18;6.60;;;;;;;;;;5017514;28;20058;-88
2021/09/10 00:20:43;;;;;;;8.80;6.90;;;;;;;;;;5017242;28;20053;-90
2021/09/10 00:23:09;;;;;;;9.40;7.10;;;;;;;;;;5017281;28;20443;-91
2021/09/10 00:25:35;;;;;;;8.93;6.00;;;;;;;;;;5021801;28;20060;-88
2021/09/10 00:28:02;;;;;;;9.23;6.72;;;;;;;;;;5028717;28;20053;-89
2021/09/10 00:30:28;;;;;;;8.30;6.78;;;;;;;;;;5030356;28;20121;-89
2021/09/10 00:32:55;;;;;;;9.40;6.78;;;;;;;;;;5021228;28;20041;-89
2021/09/10 00:35:21;;;;;;;8.95;6.70;;;;;;;;;;5017073;28;20053;-88
2021/09/10 00:37:47;;;;;;;9.20;6.57;;;;;;;;;;5028365;28;20118;-87
2021/09/10 00:40:14;;;;;;;8.50;6.60;;;;;;;;;;5025246;28;20065;-87
2021/09/10 00:42:40;;;;;;;8.63;6.82;;;;;;;;;;5021201;28;20060;-87
2021/09/10 00:45:07;;;;;;;9.73;6.97;;;;;;;;;;5014258;28;20061;-87
2021/09/10 00:47:33;;;;;;;7.43;6.20;;;;;;;;;;5022118;28;20069;-86
2021/09/10 00:50:00;;;;;;;8.90;6.50;;;;;;;;;;5029455;28;20504;-85
2021/09/10 00:52:26;;;;;;;9.20;6.43;;;;;;;;;;5025314;28;20131;-87
2021/09/10 00:54:53;;;;;;;9.13;6.32;;;;;;;;;;5026389;28;20527;-87
2021/09/10 00:57:19;;;;;;;10.32;6.60;;;;;;;;;;5022473;28;20080;-87
2021/09/10 00:59:46;;;;;;;7.50;6.38;;;;;;;;;;5017117;28;20057;-86
2021/09/10 01:02:12;;;;;;;8.48;6.70;;;;;;;;;;5025072;28;20029;-88
2021/09/10 01:04:39;;;;;;;8.35;6.78;;;;;;;;;;5019451;28;20059;-86
2021/09/10 01:07:06;;;;;;;8.40;6.20;;;;;;;;;;5017299;28;20038;-87
2021/09/10 01:09:32;;;;;;;9.15;6.80;;;;;;;;;;5023672;28;20045;-87
2021/09/10 01:11:59;;;;;;;8.18;6.50;;;;;;;;;;5022030;28;20052;-85
2021/09/10 01:14:26;;;;;;;8.35;6.63;;;;;;;;;;5022346;28;20057;-84
2021/09/10 01:16:53;;;;;;;7.68;5.45;;;;;;;;;;5019739;28;20076;-84
2021/09/10 01:19:21;;;;;;;11.35;5.90;;;;;;;;;;5013597;28;20309;-84
2021/09/10 01:21:50;;;;;;;7.82;5.90;;;;;;;;;;5021589;28;20052;-85
2021/09/10 01:24:17;;;;;;;6.95;5.22;;;;;;;;;;5020106;28;20073;-85
2021/09/10 01:26:43;;;;;;;6.75;5.47;;;;;;;;;;5021945;28;20042;-86
2021/09/10 01:29:10;;;;;;;8.00;6.03;;;;;;;;;;5017481;28;20432;-85
2021/09/10 01:31:36;;;;;;;8.25;6.05;;;;;;;;;;5020374;28;20089;-86
2021/09/10 01:34:02;;;;;;;8.82;6.47;;;;;;;;;;5023885;28;20081;-85
2021/09/10 01:36:29;;;;;;;8.65;6.13;;;;;;;;;;5012872;28;20053;-85
2021/09/10 01:38:55;;;;;;;7.47;5.88;;;;;;;;;;5027102;28;20088;-87
2021/09/10 01:41:21;;;;;;;9.27;6.90;;;;;;;;;;5020298;28;20609;-86
2021/09/10 01:43:49;;;;;;;7.30;5.95;;;;;;;;;;5024401;28;20045;-87
2021/09/10 01:46:16;;;;;;;7.63;6.40;;;;;;;;;;5025036;28;20067;-87
2021/09/10 01:48:42;;;;;;;8.07;6.00;;;;;;;;;;5022317;28;20057;-87
2021/09/10 01:51:08;;;;;;;8.27;6.00;;;;;;;;;;5026551;28;20061;-87
2021/09/10 01:53:35;;;;;;;7.63;5.85;;;;;;;;;;5019168;28;20076;-88
2021/09/10 01:56:01;;;;;;;7.53;6.07;;;;;;;;;;5023625;28;20057;-88
2021/09/10 01:58:28;;;;;;;8.30;6.22;;;;;;;;;;5020616;28;20067;-86
2021/09/10 02:00:54;;;;;;;8.30;5.88;;;;;;;;;;5021590;28;20063;-86
2021/09/10 02:03:20;;;;;;;7.32;5.93;;;;;;;;;;5016884;28;20058;-86
2021/09/10 02:05:47;;;;;;;8.38;6.00;;;;;;;;;;5018319;28;20065;-85
2021/09/10 02:08:13;;;;;;;8.23;6.40;;;;;;;;;;5020590;28;20053;-86
2021/09/10 02:10:40;;;;;;;8.52;5.32;;;;;;;;;;5018046;28;20069;-86
2021/09/10 02:13:06;;;;;;;8.68;6.57;;;;;;;;;;5021223;28;20505;-87
2021/09/10 02:15:32;;;;;;;7.55;5.85;;;;;;;;;;5013481;28;20048;-85
2021/09/10 02:17:59;;;;;;;8.27;5.80;;;;;;;;;;5022994;28;20561;-84
2021/09/10 02:20:25;;;;;;;8.90;6.13;;;;;;;;;;5014720;28;20089;-85
2021/09/10 02:22:51;;;;;;;7.85;5.85;;;;;;;;;;5024336;28;20037;-84
2021/09/10 02:25:18;;;;;;;7.88;6.03;;;;;;;;;;5019495;28;20076;-85
2021/09/10 02:27:44;;;;;;;7.43;5.60;;;;;;;;;;5013630;28;20061;-85
2021/09/10 02:30:11;;;;;;;7.00;5.72;;;;;;;;;;5020191;28;20068;-87
2021/09/10 02:32:37;;;;;;;6.47;5.40;;;;;;;;;;5023138;28;20073;-87
2021/09/10 02:35:04;;;;;;;9.07;5.93;;;;;;;;;;5024742;28;20529;-87
2021/09/10 02:37:33;;;;;;;7.10;5.82;;;;;;;;;;5021339;28;20052;-87
2021/09/10 02:39:59;;;;;;;6.75;5.03;;;;;;;;;;5022208;28;20565;-86
2021/09/10 02:42:26;;;;;;;7.47;6.15;;;;;;;;;;5024550;28;20073;-86
2021/09/10 02:44:52;;;;;;;8.05;5.80;;;;;;;;;;5019407;28;20505;-86
2021/09/10 02:47:18;;;;;;;8.80;5.65;;;;;;;;;;5030672;28;20088;-86
2021/09/10 02:49:45;;;;;;;7.45;5.85;;;;;;;;;;5030797;28;20069;-85
2021/09/10 02:52:11;;;;;;;7.63;5.63;;;;;;;;;;5020226;28;20064;-85
2021/09/10 02:54:38;;;;;;;7.75;5.68;;;;;;;;;;5027147;28;20474;-84
2021/09/10 02:57:04;;;;;;;7.95;6.00;;;;;;;;;;5022881;28;20087;-86
2021/09/10 02:59:30;;;;;;;6.55;5.40;;;;;;;;;;5019904;28;20045;-87
2021/09/10 03:01:57;;;;;;;7.40;5.60;;;;;;;;;;5025367;28;20054;-87
2021/09/10 03:04:23;;;;;;;7.38;5.68;;;;;;;;;;5026407;28;20068;-87
2021/09/10 03:06:50;;;;;;;7.00;5.80;;;;;;;;;;5026260;28;20064;-86
2021/09/10 03:09:16;;;;;;;7.10;5.90;;;;;;;;;;5020404;28;20080;-85
2021/09/10 03:11:42;;;;;;;6.82;5.43;;;;;;;;;;5022950;28;20110;-87
2021/09/10 03:14:09;;;;;;;6.68;5.47;;;;;;;;;;5018714;28;20079;-86
2021/09/10 03:16:35;;;;;;;7.22;5.68;;;;;;;;;;5023023;28;20084;-86
2021/09/10 03:19:02;;;;;;;7.43;5.93;;;;;;;;;;5027184;28;20057;-85
2021/09/10 03:21:28;;;;;;;7.15;5.70;;;;;;;;;;5027676;28;20060;-86
2021/09/10 03:23:55;;;;;;;6.25;5.15;;;;;;;;;;5022092;28;20065;-86
2021/09/10 03:26:21;;;;;;;7.80;5.82;;;;;;;;;;5026128;28;20029;-87
2021/09/10 03:28:48;;;;;;;6.30;5.25;;;;;;;;;;5028734;28;20057;-85
2021/09/10 03:31:14;;;;;;;9.15;5.80;;;;;;;;;;5026582;28;20072;-86
2021/09/10 03:33:40;;;;;;;7.43;5.60;;;;;;;;;;5014540;28;20493;-86
2021/09/10 03:36:08;;;;;;;6.63;5.13;;;;;;;;;;5017327;28;20038;-87
2021/09/10 03:38:35;;;;;;;8.95;6.07;;;;;;;;;;5018994;28;20061;-86
2021/09/10 03:41:01;;;;;;;7.53;5.72;;;;;;;;;;5019367;28;20467;-86
2021/09/10 03:43:27;;;;;;;7.63;5.57;;;;;;;;;;5019678;28;20653;-85
2021/09/10 03:45:54;;;;;;;6.75;5.80;;;;;;;;;;5014700;28;20049;-84
2021/09/10 03:48:20;;;;;;;7.60;5.38;;;;;;;;;;5017076;28;20038;-85
2021/09/10 03:50:47;;;;;;;8.57;5.82;;;;;;;;;;5015476;28;20437;-85
2021/09/10 03:53:13;;;;;;;7.10;5.72;;;;;;;;;;5015312;28;20060;-85
2021/09/10 03:55:39;;;;;;;7.13;5.80;;;;;;;;;;5013616;28;20458;-85
2021/09/10 03:58:06;;;;;;;7.35;6.07;;;;;;;;;;5016444;28;20069;-82
2021/09/10 04:00:32;;;;;;;6.10;5.28;;;;;;;;;;5018012;28;20073;-82
2021/09/10 04:03:03;;;;;;;8.00;6.22;;;;;;;;;;5021118;28;20057;-84
2021/09/10 04:05:30;;;;;;;7.50;5.90;;;;;;;;;;5016345;28;20126;-84
2021/09/10 04:07:56;;;;;;;7.65;5.75;;;;;;;;;;5015642;28;20058;-85
2021/09/10 04:10:23;;;;;;;8.00;5.93;;;;;;;;;;5018158;28;20077;-85
2021/09/10 04:12:49;;;;;;;8.23;6.18;;;;;;;;;;5013221;28;20555;-85
2021/09/10 04:15:15;;;;;;;7.45;5.53;;;;;;;;;;5018045;28;20068;-88
2021/09/10 04:17:42;;;;;;;7.28;5.60;;;;;;;;;;5017777;28;20041;-86
2021/09/10 04:20:13;;;;;;;7.30;5.70;;;;;;;;;;5018532;28;20390;-86
2021/09/10 04:22:42;;;;;;;7.63;6.40;;;;;;;;;;5018242;28;20080;-86
2021/09/10 04:25:09;;;;;;;8.02;6.22;;;;;;;;;;5015396;28;20085;-85
2021/09/10 04:27:35;;;;;;;7.82;5.93;;;;;;;;;;5011133;28;20052;-85
2021/09/10 04:30:03;;;;;;;6.45;5.55;;;;;;;;;;5021102;28;20080;-85
2021/09/10 04:32:30;;;;;;;8.20;6.15;;;;;;;;;;5022433;28;20076;-85
2021/09/10 04:34:57;;;;;;;6.82;5.63;;;;;;;;;;5014901;28;20458;-85
2021/09/10 04:37:23;;;;;;;6.43;5.55;;;;;;;;;;5016640;28;20119;-85
2021/09/10 04:39:50;;;;;;;7.30;5.72;;;;;;;;;;5013616;28;20057;-85
2021/09/10 04:42:16;;;;;;;7.70;5.70;;;;;;;;;;5015417;28;20069;-85
2021/09/10 04:44:43;;;;;;;8.00;6.03;;;;;;;;;;5010738;28;20475;-85
2021/09/10 04:47:09;;;;;;;9.05;5.78;;;;;;;;;;5025447;28;20057;-86
2021/09/10 04:49:36;;;;;;;8.93;6.15;;;;;;;;;;4983495;28;20524;-86
2021/09/10 04:52:02;;;;;;;9.02;6.05;;;;;;;;;;5013918;28;20126;-84
2021/09/10 04:54:28;;;;;;;11.35;6.38;;;;;;;;;;5016770;28;20068;-83
2021/09/10 04:56:55;;;;;;;8.48;6.30;;;;;;;;;;5012896;28;20065;-82
2021/09/10 04:59:21;;;;;;;10.18;6.28;;;;;;;;;;5014225;28;20681;-85
2021/09/10 05:01:48;;;;;;;9.73;6.88;;;;;;;;;;5006360;28;20062;-84
2021/09/10 05:04:14;;;;;;;9.35;6.30;;;;;;;;;;5002880;28;20077;-83
2021/09/10 05:06:40;;;;;;;11.00;6.32;;;;;;;;;;5033199;28;20061;-76
2021/09/10 05:09:07;;;;;;;9.63;6.07;;;;;;;;;;4995986;28;20061;-79
2021/09/10 05:11:33;;;;;;;10.75;6.03;;;;;;;;;;4997662;28;20142;-78
2021/09/10 05:13:59;;;;;;;8.45;6.10;;;;;;;;;;5007891;28;20060;-79
2021/09/10 05:16:26;;;;;;;14.27;6.80;;;;;;;;;;5020403;28;20065;-79
2021/09/10 05:18:52;;;;;;;12.57;7.05;;;;;;;;;;5017794;28;20065;-79
2021/09/10 05:21:19;;;;;;;8.13;6.28;;;;;;;;;;5018069;28;20061;-79
2021/09/10 05:23:45;;;;;;;12.18;6.32;;;;;;;;;;5014173;28;20057;-80
2021/09/10 05:26:12;;;;;;;10.80;5.90;;;;;;;;;;5020038;28;20045;-78
2021/09/10 05:28:38;;;;;;;9.05;6.13;;;;;;;;;;5021875;28;20065;-80
2021/09/10 05:31:05;;;;;;;9.48;6.15;;;;;;;;;;5013597;28;20065;-79
2021/09/10 05:33:31;;;;;;;13.80;6.20;;;;;;;;;;5014447;28;20069;-80
2021/09/10 05:35:57;;;;;;;9.55;6.15;;;;;;;;;;5020232;28;20049;-80
2021/09/10 05:38:24;;;;;;;9.80;5.85;;;;;;;;;;5019395;28;20065;-81
2021/09/10 05:40:50;;;;;;;9.30;6.20;;;;;;;;;;5008948;28;20079;-80
2021/09/10 05:43:17;;;;;;;10.43;6.20;;;;;;;;;;5011797;28;20557;-81
2021/09/10 05:45:43;;;;;;;9.45;5.97;;;;;;;;;;5018566;28;20103;-81
2021/09/10 05:48:09;;;;;;;9.93;6.43;;;;;;;;;;5021367;28;20057;-81
2021/09/10 05:50:36;;;;;;;9.98;5.95;;;;;;;;;;5013480;28;20076;-80
2021/09/10 05:53:03;;;;;;;8.70;5.90;;;;;;;;;;5020754;28;20056;-79
2021/09/10 05:55:29;;;;;;;7.90;5.80;;;;;;;;;;5018698;28;20533;-81
2021/09/10 05:57:55;;;;;;;11.25;5.50;;;;;;;;;;5024115;28;20080;-80
2021/09/10 06:00:22;;;;;;;8.68;6.18;;;;;;;;;;5021969;28;20068;-79
2021/09/10 06:02:48;;;;;;;8.77;6.13;;;;;;;;;;5016581;28;20065;-80
2021/09/10 06:05:15;;;;;;;10.30;5.95;;;;;;;;;;5016912;28;20041;-81
2021/09/10 06:07:41;;;;;;;8.35;5.97;;;;;;;;;;5014800;28;20086;-80
2021/09/10 06:10:08;;;;;;;8.70;5.78;;;;;;;;;;5015247;28;20151;-80
2021/09/10 06:12:34;;;;;;;9.70;6.03;;;;;;;;;;5015654;28;20069;-80
2021/09/10 06:15:00;;;;;;;12.13;6.35;;;;;;;;;;5022917;28;20057;-80
2021/09/10 06:17:27;;;;;;;9.15;6.22;;;;;;;;;;5020207;28;20099;-81
2021/09/10 06:19:53;;;;;;;7.88;6.00;;;;;;;;;;5020011;28;20053;-80
2021/09/10 06:22:19;;;;;;;7.72;5.50;;;;;;;;;;5016632;28;20072;-80
2021/09/10 06:24:46;;;;;;;9.00;5.82;;;;;;;;;;5015312;28;20068;-79
2021/09/10 06:27:12;;;;;;;11.57;6.18;;;;;;;;;;5026607;28;20453;-80
2021/09/10 06:29:39;;;;;;;7.88;5.72;;;;;;;;;;5020759;28;20081;-80
2021/09/10 06:32:05;;;;;;;8.07;5.88;;;;;;;;;;5016622;28;20048;-79
2021/09/10 06:34:31;;;;;;;7.70;5.65;;;;;;;;;;5019268;28;20041;-80
2021/09/10 06:36:58;;;;;;;9.23;5.22;;;;;;;;;;5018970;28;20057;-80
2021/09/10 06:39:24;;;;;;;10.05;5.47;;;;;;;;;;5013515;28;20172;-80
2021/09/10 06:41:51;;;;;;;6.88;5.70;;;;;;;;;;5016299;28;20041;-82
2021/09/10 06:44:17;;;;;;;9.50;5.63;;;;;;;;;;5022952;28;20060;-80
2021/09/10 06:46:43;;;;;;;8.57;5.65;;;;;;;;;;5013676;28;20065;-81
2021/09/10 06:49:10;;;;;;;11.13;5.50;;;;;;;;;;5012063;28;20028;-81
2021/09/10 06:51:36;;;;;;;9.15;5.75;;;;;;;;;;5023665;28;20073;-79
2021/09/10 06:54:03;;;;;;;8.52;5.97;;;;;;;;;;5017275;28;20060;-80
2021/09/10 06:56:29;;;;;;;7.53;5.75;;;;;;;;;;5021543;28;20065;-80
2021/09/10 06:58:55;;;;;;;7.38;5.50;;;;;;;;;;5022689;28;20065;-79
2021/09/10 07:01:22;;;;;;;8.05;5.60;;;;;;;;;;5021127;28;20049;-80
2021/09/10 07:03:48;;;;;;;5.88;4.97;;;;;;;;;;5009867;28;20049;-80
2021/09/10 07:06:15;;;;;;;7.65;4.95;;;;;;;;;;5015241;28;20501;-81
2021/09/10 07:08:41;;;;;;;6.95;5.20;;;;;;;;;;5016902;28;20061;-79
2021/09/10 07:11:08;;;;;;;7.20;5.38;;;;;;;;;;5022812;28;20065;-81
2021/09/10 07:13:34;;;;;;;10.88;5.97;;;;;;;;;;5013255;28;20069;-79
2021/09/10 07:16:01;;;;;;;6.55;5.10;;;;;;;;;;5023763;28;20061;-79
2021/09/10 07:18:27;;;;;;;6.88;5.15;;;;;;;;;;5023682;28;20072;-81
2021/09/10 07:20:53;;;;;;;6.55;5.10;;;;;;;;;;5020008;28;20057;-80
2021/09/10 07:23:20;;;;;;;7.22;5.57;;;;;;;;;;5024277;28;20071;-81
2021/09/10 07:25:46;;;;;;;6.63;5.22;;;;;;;;;;5021915;28;20175;-79
2021/09/10 07:28:13;;;;;;;8.70;5.32;;;;;;;;;;5024325;28;20062;-80
2021/09/10 07:30:39;;;;;;;8.00;5.40;;;;;;;;;;5030846;28;20080;-80
2021/09/10 07:33:06;;;;;;;7.00;5.07;;;;;;;;;;5023987;28;20119;-80
2021/09/10 07:35:32;;;;;;;7.43;5.68;;;;;;;;;;5018120;28;20053;-81
2021/09/10 07:37:58;;;;;;;7.35;5.10;;;;;;;;;;5021192;28;20061;-80
2021/09/10 07:40:25;;;;;;;7.65;5.18;;;;;;;;;;5023969;28;20065;-80
2021/09/10 07:42:51;;;;;;;7.40;5.30;;;;;;;;;;5023575;28;20060;-80
2021/09/10 07:45:18;;;;;;;7.47;5.45;;;;;;;;;;5015226;28;20484;-79
2021/09/10 07:47:44;;;;;;;6.97;5.57;;;;;;;;;;5019817;28;20065;-81
2021/09/10 07:50:10;;;;;;;7.03;4.88;;;;;;;;;;5021560;28;20069;-81
2021/09/10 07:52:37;;;;;;;7.85;5.38;;;;;;;;;;5021331;28;20060;-79
2021/09/10 07:55:03;;;;;;;6.65;5.07;;;;;;;;;;5019309;28;20775;-80
2021/09/10 07:57:30;;;;;;;6.82;5.45;;;;;;;;;;5022839;28;20061;-79
2021/09/10 07:59:56;;;;;;;8.93;5.47;;;;;;;;;;5026852;28;20056;-80
2021/09/10 08:02:23;;;;;;;6.97;5.20;;;;;;;;;;5017817;28;20157;-80
2021/09/10 08:04:49;;;;;;;6.00;5.03;;;;;;;;;;5015328;28;20079;-80
2021/09/10 08:07:16;;;;;;;6.88;5.32;;;;;;;;;;5018587;28;20045;-79
2021/09/10 08:09:42;;;;;;;7.97;5.30;;;;;;;;;;5024623;28;20057;-81
2021/09/10 08:12:09;;;;;;;7.25;5.40;;;;;;;;;;5026110;28;20513;-81
2021/09/10 08:14:35;;;;;;;6.93;5.20;;;;;;;;;;5026122;28;20070;-78
2021/09/10 08:17:01;;;;;;;6.90;5.13;;;;;;;;;;5025036;28;20139;-79
2021/09/10 08:19:28;;;;;;;6.40;5.20;;;;;;;;;;5018145;28;20065;-80
2021/09/10 08:21:55;;;;;;;6.50;4.85;;;;;;;;;;5010279;28;20127;-80
2021/09/10 08:24:21;;;;;;;8.60;5.28;;;;;;;;;;5026398;28;20029;-81
2021/09/10 08:26:48;;;;;;;6.65;5.15;;;;;;;;;;5021606;28;20115;-80
2021/09/10 08:29:14;;;;;;;5.43;4.63;;;;;;;;;;5026594;28;20524;-80
2021/09/10 08:31:41;;;;;;;7.43;4.97;;;;;;;;;;5016307;28;20505;-80
2021/09/10 08:34:08;;;;;;;7.45;4.95;;;;;;;;;;5007378;28;20034;-81
2021/09/10 08:36:35;;;;;;;5.57;4.72;;;;;;;;;;5020861;28;20037;-81
2021/09/10 08:39:01;;;;;;;6.25;5.20;;;;;;;;;;5021808;28;20065;-81
2021/09/10 08:41:28;;;;;;;6.55;4.95;;;;;;;;;;5021717;28;20034;-80
2021/09/10 08:44:02;;;;;;;5.65;4.95;;;;;;;;;;5026300;28;20056;-79
2021/09/10 08:46:28;;;;;;;8.10;5.45;;;;;;;;;;5017322;28;20155;-79
2021/09/10 08:48:55;;;;;;;7.03;5.40;;;;;;;;;;5019960;28;20048;-79
2021/09/10 08:51:21;;;;;;;6.13;5.13;;;;;;;;;;5011555;28;20069;-79
2021/09/10 08:53:47;;;;;;;7.47;5.00;;;;;;;;;;5016717;28;20559;-81
2021/09/10 08:56:14;;;;;;;7.00;5.00;;;;;;;;;;5023991;28;20061;-79
2021/09/10 08:58:41;;;;;;;5.60;4.90;;;;;;;;;;5024327;28;20076;-81
2021/09/10 09:01:07;;;;;;;6.22;5.05;;;;;;;;;;5023709;28;20579;-81
2021/09/10 09:03:34;;;;;;;5.82;4.88;;;;;;;;;;5021256;28;20056;-79
2021/09/10 09:06:01;;;;;;;6.70;5.13;;;;;;;;;;5022986;28;20065;-79
2021/09/10 09:08:27;;;;;;;5.68;4.70;;;;;;;;;;5021152;28;20068;-80
2021/09/10 09:10:58;;;;;;;6.50;4.88;;;;;;;;;;5021937;28;20141;-80
2021/09/10 09:13:35;;;;;;;6.78;5.53;;;;;;;;;;5020898;28;20436;-79
2021/09/10 09:16:12;;;;;;;5.85;4.85;;;;;;;;;;5022485;28;20335;-80
2021/09/10 09:18:40;;;;;;;5.55;4.55;;;;;;;;;;5018908;28;20084;-81
2021/09/10 09:21:06;;;;;;;6.53;4.82;;;;;;;;;;5025330;28;20497;-81
2021/09/10 09:23:33;;;;;;;6.05;5.13;;;;;;;;;;5018845;28;20062;-80
2021/09/10 09:25:59;;;;;;;6.72;5.13;;;;;;;;;;5024660;28;20068;-80
2021/09/10 09:28:26;;;;;;;6.20;4.95;;;;;;;;;;5016763;28;20038;-80
2021/09/10 09:30:52;;;;;;;6.40;5.13;;;;;;;;;;5019851;28;20061;-82
2021/09/10 09:33:19;;;;;;;7.22;5.38;;;;;;;;;;5015721;28;20057;-80
2021/09/10 09:35:46;;;;;;;5.80;4.97;;;;;;;;;;5020159;28;20079;-80
2021/09/10 09:38:20;;;;;;;5.78;4.72;;;;;;;;;;5019899;28;20466;-81
2021/09/10 09:40:47;;;;;;;6.18;4.82;;;;;;;;;;5020610;28;20088;-80
2021/09/10 09:43:15;;;;;;;6.45;4.97;;;;;;;;;;5026693;28;20068;-80
2021/09/10 09:45:41;;;;;;;6.65;4.80;;;;;;;;;;5023012;28;20072;-80
2021/09/10 09:48:09;;;;;;;6.43;5.15;;;;;;;;;;5024401;28;20038;-80
2021/09/10 09:50:37;;;;;;;6.07;5.00;;;;;;;;;;5024598;28;20473;-80
2021/09/10 09:53:03;;;;;;;7.43;4.80;;;;;;;;;;5025339;28;20119;-81
2021/09/10 09:55:30;;;;;;;6.32;5.00;;;;;;;;;;5021134;28;20750;-79
2021/09/10 09:57:56;;;;;;;6.32;4.82;;;;;;;;;;5019305;28;20107;-81
2021/09/10 10:00:23;;;;;;;5.60;4.80;;;;;;;;;;5020491;28;20068;-80
2021/09/10 10:02:49;;;;;;;6.70;5.53;;;;;;;;;;5023273;28;20069;-81
2021/09/10 10:05:16;;;;;;;8.05;5.35;;;;;;;;;;5022172;28;20057;-80
2021/09/10 10:07:48;;;;;;;6.28;5.30;;;;;;;;;;5018194;28;20061;-80
2021/09/10 10:10:20;;;;;;;7.13;5.00;;;;;;;;;;5009251;28;20066;-80
2021/09/10 10:12:50;;;;;;;6.95;5.20;;;;;;;;;;5010665;28;20576;-81
2021/09/10 10:15:20;;;;;;;6.93;4.97;;;;;;;;;;5027587;28;20800;-80
2021/09/10 10:17:46;;;;;;;7.10;5.40;;;;;;;;;;5022392;28;20079;-80
2021/09/10 10:20:20;;;;;;;7.53;5.18;;;;;;;;;;5016920;28;20599;-80
2021/09/10 10:22:47;;;;;;;5.65;4.63;;;;;;;;;;5011208;28;20070;-85
2021/09/10 10:25:13;;;;;;;7.68;5.20;;;;;;;;;;5018185;28;20053;-86
2021/09/10 10:27:43;;;;;;;5.80;5.18;;;;;;;;;;5022044;28;20457;-85
2021/09/10 10:30:16;;;;;;;6.13;4.97;;;;;;;;;;5013663;28;20494;-85
2021/09/10 10:32:43;;;;;;;5.30;4.30;;;;;;;;;;5014513;28;20062;-83
2021/09/10 10:35:15;;;;;;;5.57;4.60;;;;;;;;;;5025311;28;20072;-85
2021/09/10 10:38:00;;;;;;;8.00;5.10;;;;;;;;;;5023681;28;20060;-83
2021/09/10 10:40:33;;;;;;;7.90;5.35;;;;;;;;;;5013123;28;20111;-84
2021/09/10 10:43:02;;;;;;;6.63;5.00;;;;;;;;;;5001060;28;20448;-83
2021/09/10 10:45:41;;;;;;;7.57;5.50;;;;;;;;;;4988684;28;20064;-82
2021/09/10 10:48:26;;;;;;;5.95;4.88;;;;;;;;;;5005672;28;20523;-83
2021/09/10 10:50:52;;;;;;;7.00;4.97;;;;;;;;;;5001891;28;20383;-84
2021/09/10 10:53:19;;;;;;;7.25;5.18;;;;;;;;;;4996823;28;20102;-84
2021/09/10 10:55:45;;;;;;;5.55;4.60;;;;;;;;;;4995120;28;20084;-84
2021/09/10 10:58:22;;;;;;;6.15;5.18;;;;;;;;;;5014987;28;20065;-84
2021/09/10 11:00:50;;;;;;;6.82;5.40;;;;;;;;;;5003251;28;20052;-84
2021/09/10 11:03:16;;;;;;;7.47;5.18;;;;;;;;;;5006614;28;20088;-85
2021/09/10 11:11:26;;;;;;;6.20;5.20;;;;;;;;;;5276113;22;20069;-83
2021/09/10 11:13:52;;;;;;;6.78;5.35;;;;;;;;;;5019400;28;20157;-83
2021/09/10 11:16:26;;;;;;;7.03;5.38;;;;;;;;;;5043173;28;20053;-83
2021/09/10 11:18:53;;;;;;;6.47;5.07;;;;;;;;;;5005990;28;20049;-83
2021/09/10 11:21:25;;;;;;;6.18;5.30;;;;;;;;;;5010265;28;20539;-83
2021/09/10 11:23:52;;;;;;;6.75;5.20;;;;;;;;;;5001312;28;20081;-83
2021/09/10 11:26:18;;;;;;;7.45;5.10;;;;;;;;;;4993684;28;20180;-83
2021/09/10 11:28:44;;;;;;;6.63;5.50;;;;;;;;;;5019573;28;20033;-83
2021/09/10 11:31:11;;;;;;;8.52;5.97;;;;;;;;;;5031149;28;20061;-82
2021/09/10 11:33:41;;;;;;;7.53;5.80;;;;;;;;;;5026575;28;20502;-82
2021/09/10 11:36:08;;;;;;;6.78;5.53;;;;;;;;;;5018832;28;20506;-83
2021/09/10 11:38:34;;;;;;;7.63;5.63;;;;;;;;;;5023275;28;20104;-83
2021/09/10 11:41:03;;;;;;;6.20;5.47;;;;;;;;;;5025368;28;20061;-83
2021/09/10 11:43:32;;;;;;;6.03;4.80;;;;;;;;;;5012358;28;20372;-82
2021/09/10 11:45:59;;;;;;;6.25;5.43;;;;;;;;;;5003724;28;20069;-83
2021/09/10 11:48:30;;;;;;;7.43;5.50;;;;;;;;;;5019685;28;20053;-84
2021/09/10 11:50:57;;;;;;;6.30;5.53;;;;;;;;;;5018685;28;21501;-83
2021/09/10 11:53:27;;;;;;;7.45;5.68;;;;;;;;;;5016095;28;20055;-80
2021/09/10 11:55:55;;;;;;;7.82;5.32;;;;;;;;;;5013067;28;20127;-80
2021/09/10 11:58:34;;;;;;;6.43;5.03;;;;;;;;;;5029709;28;20769;-80
2021/09/10 12:01:13;;;;;;;6.05;5.03;;;;;;;;;;5029095;28;20124;-80
2021/09/10 12:03:49;;;;;;;7.28;5.30;;;;;;;;;;5025223;28;20396;-80
2021/09/10 12:06:20;;;;;;;6.32;5.18;;;;;;;;;;5028993;28;20135;-80
2021/09/10 12:09:05;;;;;;;6.35;4.85;;;;;;;;;;5002738;28;20812;-80
2021/09/10 12:11:31;;;;;;;6.25;5.07;;;;;;;;;;5011724;28;20123;-79
2021/09/10 12:13:58;;;;;;;7.10;5.15;;;;;;;;;;5004806;28;20065;-79
2021/09/10 12:16:24;;;;;;;7.20;5.13;;;;;;;;;;4998579;28;20558;-80
2021/09/10 12:19:03;;;;;;;6.45;5.00;;;;;;;;;;4989809;28;20111;-79
2021/09/10 12:21:30;;;;;;;7.00;5.22;;;;;;;;;;4996618;28;20086;-79
2021/09/10 12:24:12;;;;;;;6.53;4.90;;;;;;;;;;5015474;28;20057;-80
2021/09/10 12:26:52;;;;;;;9.35;5.68;;;;;;;;;;5002789;28;20084;-79
2021/09/10 12:29:28;;;;;;;7.45;5.45;;;;;;;;;;5005654;28;20068;-79
2021/09/10 12:31:55;;;;;;;5.93;4.90;;;;;;;;;;5001207;28;20123;-79
2021/09/10 12:34:22;;;;;;;7.78;4.88;;;;;;;;;;4993598;28;20080;-79
2021/09/10 12:36:48;;;;;;;7.40;5.60;;;;;;;;;;4974072;28;20586;-79
2021/09/10 12:39:15;;;;;;;5.97;5.20;;;;;;;;;;4979842;28;20128;-79
2021/09/10 12:41:42;;;;;;;5.68;5.00;;;;;;;;;;4992923;28;20065;-80
2021/09/10 12:44:09;;;;;;;7.05;5.30;;;;;;;;;;4989475;28;20082;-79
2021/09/10 12:46:36;;;;;;;6.07;5.47;;;;;;;;;;4998332;28;20500;-79
2021/09/10 12:49:03;;;;;;;11.05;5.30;;;;;;;;;;4988376;28;20065;-79
2021/09/10 12:51:30;;;;;;;9.63;5.53;;;;;;;;;;4974765;28;20070;-80
2021/09/10 12:53:57;;;;;;;6.10;4.82;;;;;;;;;;4978511;28;20486;-79
2021/09/10 12:56:24;;;;;;;8.77;5.97;;;;;;;;;;4992426;28;20117;-80
2021/09/10 12:58:50;;;;;;;6.47;5.15;;;;;;;;;;4986208;28;20054;-80
2021/09/10 13:01:17;;;;;;;7.22;5.53;;;;;;;;;;4992272;28;20654;-80
2021/09/10 13:20:21;;;;;;;7.32;5.00;;;;;;;;;;5103777;27;21122;-77
2021/09/10 13:22:48;;;;;;;7.47;5.32;;;;;;;;;;5085570;28;20670;-77
2021/09/10 13:25:14;;;;;;;5.78;4.70;;;;;;;;;;5080502;27;20431;-77
2021/09/10 13:27:41;;;;;;;6.82;5.15;;;;;;;;;;5088001;27;20028;-76
2021/09/10 13:30:08;;;;;;;7.20;6.00;;;;;;;;;;5082206;28;20063;-78
2021/09/10 13:32:34;;;;;;;6.70;5.85;;;;;;;;;;5064149;27;20084;-77
2021/09/10 13:35:01;;;;;;;8.40;5.70;;;;;;;;;;5083753;28;20036;-76
2021/09/10 13:37:27;;;;;;;5.85;4.60;;;;;;;;;;5100810;27;20063;-77
2021/09/10 13:39:54;;;;;;;6.93;5.57;;;;;;;;;;5079340;27;20213;-77
2021/09/10 13:42:20;;;;;;;5.93;4.90;;;;;;;;;;5092102;27;20073;-77
2021/09/10 13:44:47;;;;;;;5.80;4.95;;;;;;;;;;5100600;27;20056;-77
2021/09/10 13:47:13;;;;;;;7.40;5.40;;;;;;;;;;5102341;27;20036;-77
2021/09/10 13:49:40;;;;;;;6.57;4.95;;;;;;;;;;5097467;27;20463;-77
2021/09/10 13:52:06;;;;;;;6.90;5.65;;;;;;;;;;5085536;28;20056;-77
2021/09/10 13:54:33;;;;;;;5.70;4.88;;;;;;;;;;5097045;27;20031;-77
2021/09/10 13:56:59;;;;;;;7.05;5.28;;;;;;;;;;5100832;27;20099;-77
2021/09/10 13:59:27;;;;;;;6.00;5.15;;;;;;;;;;5098973;28;20036;-77
2021/09/10 14:01:55;;;;;;;6.63;5.10;;;;;;;;;;5088737;27;20039;-77
2021/09/10 14:04:23;;;;;;;5.97;5.13;;;;;;;;;;5093557;27;20055;-77
2021/09/10 14:06:50;;;;;;;8.32;5.28;;;;;;;;;;5088662;28;20116;-77
2021/09/10 14:09:17;;;;;;;7.22;5.30;;;;;;;;;;5092332;27;20635;-77
2021/09/10 14:11:43;;;;;;;7.50;5.40;;;;;;;;;;5076743;27;20492;-78
2021/09/10 14:14:10;;;;;;;7.85;5.75;;;;;;;;;;5089694;28;20037;-77
2021/09/10 14:16:37;;;;;;;6.72;5.15;;;;;;;;;;5097084;27;20104;-77
2021/09/10 14:19:04;;;;;;;7.97;5.50;;;;;;;;;;5095442;27;20422;-77
2021/09/10 14:21:30;;;;;;;8.23;5.88;;;;;;;;;;5086336;27;20381;-77
2021/09/10 14:23:56;;;;;;;6.18;5.47;;;;;;;;;;5086197;28;20052;-77
2021/09/10 14:26:23;;;;;;;6.85;5.40;;;;;;;;;;5086090;28;20052;-78
2021/09/10 14:28:50;;;;;;;7.35;5.95;;;;;;;;;;5080454;28;20068;-78
2021/09/10 14:31:17;;;;;;;7.60;5.93;;;;;;;;;;5084239;28;20511;-85
2021/09/10 14:33:43;;;;;;;6.60;5.57;;;;;;;;;;5079576;28;20029;-78
2021/09/10 14:36:10;;;;;;;9.85;6.90;;;;;;;;;;5085026;28;20056;-78
2021/09/10 14:38:37;;;;;;;8.95;6.55;;;;;;;;;;5083202;28;20090;-78
2021/09/10 14:41:03;;;;;;;7.43;6.05;;;;;;;;;;5082902;28;20067;-77
2021/09/10 14:43:30;;;;;;;7.65;6.10;;;;;;;;;;5086799;28;20074;-78
2021/09/10 14:45:56;;;;;;;13.10;10.43;;;;;;;;;;5086576;28;20055;-83
2021/09/10 14:48:22;;;;;;;15.27;10.90;;;;;;;;;;5081064;28;20032;-77
2021/09/10 14:50:49;;;;;;;17.98;11.23;;;;;;;;;;5083118;28;20180;-76
2021/09/10 14:53:15;;;;;;;14.80;10.80;;;;;;;;;;5080165;28;20538;-77
2021/09/10 14:55:42;;;;;;;13.95;11.35;;;;;;;;;;5064711;28;20113;-77
2021/09/10 14:58:08;;;;;;;16.13;12.00;;;;;;;;;;5079045;28;20061;-76
2021/09/10 15:00:35;;;;;;;18.98;12.52;;;;;;;;;;5074416;28;20071;-78
2021/09/10 15:03:02;;;;;;;16.23;11.40;;;;;;;;;;5065402;28;20032;-77